createdAt,value
2018-03-28T00:01:13.323Z,7.40
2018-03-28T00:03:43.749Z,7.40
2018-03-28T00:06:10.872Z,7.40
2018-03-28T00:08:38.683Z,7.40
2018-03-28T00:11:05.067Z,7.30
2018-03-28T00:13:32.592Z,7.30
2018-03-28T00:15:59.017Z,7.20
2018-03-28T00:18:25.297Z,7.30
2018-03-28T00:20:51.879Z,7.40
2018-03-28T00:23:18.581Z,7.30
2018-03-28T00:25:44.797Z,7.40
2018-03-28T00:28:10.960Z,7.30
2018-03-28T00:30:37.291Z,7.40
2018-03-28T00:33:05.068Z,7.50
2018-03-28T00:35:31.720Z,7.30
2018-03-28T00:37:58.082Z,7.30
2018-03-28T00:40:24.953Z,7.30
2018-03-28T00:42:51.260Z,7.30
2018-03-28T00:45:18.147Z,7.40
2018-03-28T00:47:44.528Z,7.50
2018-03-28T00:50:10.812Z,7.30
2018-03-28T00:52:38.071Z,7.30
2018-03-28T00:55:04.772Z,7.30
2018-03-28T00:57:30.914Z,7.30
2018-03-28T00:59:57.083Z,7.20
2018-03-28T01:02:23.283Z,7.20
2018-03-28T01:04:49.942Z,7.30
2018-03-28T01:07:16.397Z,7.30
2018-03-28T01:09:42.622Z,7.30
2018-03-28T01:12:09.509Z,7.20
2018-03-28T01:14:36.650Z,7.30
2018-03-28T01:17:03.111Z,7.30
2018-03-28T01:19:29.243Z,7.40
2018-03-28T01:21:55.345Z,7.40
2018-03-28T01:24:21.491Z,7.30
2018-03-28T01:26:47.739Z,7.30
2018-03-28T01:29:14.176Z,7.30
2018-03-28T01:31:40.711Z,7.30
2018-03-28T01:34:06.917Z,7.30
2018-03-28T01:53:17.606Z,7.40
2018-03-28T01:55:43.905Z,7.40
2018-03-28T01:58:11.655Z,7.30
2018-03-28T02:00:37.780Z,7.40
2018-03-28T02:03:03.868Z,7.40
2018-03-28T02:05:30.097Z,7.30
2018-03-28T02:07:56.217Z,7.30
2018-03-28T02:10:22.500Z,7.30
2018-03-28T02:12:48.718Z,7.30
2018-03-28T02:15:15.871Z,7.30
2018-03-28T02:17:41.954Z,7.20
2018-03-28T02:20:08.072Z,7.30
2018-03-28T02:22:34.250Z,7.30
2018-03-28T02:25:00.489Z,7.30
2018-03-28T02:27:27.269Z,7.40
2018-03-28T02:29:54.270Z,7.30
2018-03-28T02:32:20.473Z,7.40
2018-03-28T02:34:46.591Z,7.40
2018-03-28T02:37:12.791Z,7.40
2018-03-28T02:39:38.922Z,7.30
2018-03-28T02:42:05.056Z,7.40
2018-03-28T02:44:31.380Z,7.40
2018-03-28T02:46:57.425Z,7.40
2018-03-28T02:49:23.533Z,7.40
2018-03-28T02:51:50.473Z,7.40
2018-03-28T02:54:16.807Z,7.40
2018-03-28T02:56:42.930Z,7.40
2018-03-28T02:59:09.065Z,7.40
2018-03-28T03:01:35.183Z,7.40
2018-03-28T03:20:47.304Z,7.50
2018-03-28T03:23:13.537Z,7.50
2018-03-28T03:25:40.576Z,7.50
2018-03-28T03:28:07.829Z,7.50
2018-03-28T03:30:34.467Z,7.50
2018-03-28T03:33:00.646Z,7.50
2018-03-28T03:35:27.235Z,7.50
2018-03-28T03:37:53.408Z,7.50
2018-03-28T03:40:19.655Z,7.50
2018-03-28T03:42:45.814Z,7.60
2018-03-28T03:45:12.818Z,7.60
2018-03-28T03:47:39.657Z,7.50
2018-03-28T03:50:05.831Z,7.50
2018-03-28T03:52:33.444Z,7.60
2018-03-28T03:55:00.386Z,7.60
2018-03-28T03:57:26.521Z,7.60
2018-03-28T03:59:52.701Z,7.60
2018-03-28T04:02:19.949Z,7.70
2018-03-28T04:04:46.590Z,7.70
2018-03-28T04:07:13.151Z,7.70
2018-03-28T04:09:39.351Z,7.80
2018-03-28T04:12:06.070Z,7.80
2018-03-28T04:14:32.404Z,7.80
2018-03-28T04:16:58.846Z,7.80
2018-03-28T04:32:48.590Z,7.80
2018-03-28T04:35:15.526Z,7.80
2018-03-28T04:37:41.680Z,7.90
2018-03-28T04:40:07.805Z,7.90
2018-03-28T04:42:33.904Z,7.90
2018-03-28T04:45:00.209Z,7.90
2018-03-28T04:47:26.848Z,7.90
2018-03-28T04:49:52.957Z,7.90
2018-03-28T04:52:19.509Z,7.90
2018-03-28T04:54:45.601Z,7.90
2018-03-28T04:57:11.731Z,8.00
2018-03-28T04:59:37.976Z,7.90
2018-03-28T05:02:04.445Z,7.90
2018-03-28T05:04:30.759Z,7.90
2018-03-28T05:06:57.345Z,8.00
2018-03-28T05:09:24.162Z,8.00
2018-03-28T05:11:50.637Z,8.00
2018-03-28T05:14:17.186Z,8.00
2018-03-28T05:33:46.027Z,8.20
2018-03-28T05:52:55.479Z,8.30
2018-03-28T05:55:22.102Z,8.40
2018-03-28T05:57:48.434Z,8.40
2018-03-28T06:00:15.775Z,8.40
2018-03-28T06:02:42.305Z,8.40
2018-03-28T06:05:08.481Z,8.50
2018-03-28T06:07:35.144Z,8.50
2018-03-28T06:10:01.580Z,8.50
2018-03-28T06:12:29.396Z,8.50
2018-03-28T06:14:56.418Z,8.60
2018-03-28T06:17:22.590Z,8.60
2018-03-28T06:19:48.878Z,8.60
2018-03-28T06:22:16.301Z,8.60
2018-03-28T06:24:42.483Z,8.60
2018-03-28T06:27:08.782Z,8.60
2018-03-28T06:29:38.520Z,8.60
2018-03-28T06:32:06.280Z,8.70
2018-03-28T06:34:32.715Z,8.70
2018-03-28T06:37:00.008Z,8.70
2018-03-28T06:39:26.208Z,8.70
2018-03-28T06:41:52.377Z,8.70
2018-03-28T06:44:18.801Z,8.70
2018-03-28T06:46:45.399Z,8.80
2018-03-28T06:49:12.349Z,8.80
2018-03-28T06:51:38.663Z,8.80
2018-03-28T06:54:05.738Z,8.80
2018-03-28T07:13:15.176Z,8.90
2018-03-28T07:15:41.618Z,8.90
2018-03-28T07:18:07.724Z,8.90
2018-03-28T07:20:35.778Z,8.90
2018-03-28T07:23:01.918Z,9.00
2018-03-28T07:25:28.095Z,9.00
2018-03-28T07:27:55.195Z,9.00
2018-03-28T07:30:21.673Z,8.90
2018-03-28T07:32:48.920Z,9.00
2018-03-28T07:35:15.048Z,9.00
2018-03-28T07:37:41.382Z,8.90
2018-03-28T07:40:07.940Z,9.00
2018-03-28T07:42:34.844Z,9.00
2018-03-28T07:45:02.119Z,8.90
2018-03-28T07:47:28.193Z,9.00
2018-03-28T07:49:54.364Z,8.90
2018-03-28T07:52:20.854Z,8.90
2018-03-28T07:54:46.933Z,8.90
2018-03-28T07:57:14.762Z,8.90
2018-03-28T07:59:41.925Z,8.90
2018-03-28T08:02:08.786Z,8.90
2018-03-28T08:04:36.552Z,8.80
2018-03-28T08:07:08.410Z,8.80
2018-03-28T08:09:35.532Z,8.80
2018-03-28T08:12:01.683Z,8.90
2018-03-28T08:28:36.387Z,9.30
2018-03-28T08:31:04.275Z,9.10
2018-03-28T08:33:31.258Z,9.00
2018-03-28T08:35:57.404Z,9.00
2018-03-28T08:38:24.344Z,8.90
2018-03-28T08:40:50.466Z,8.90
2018-03-28T08:43:18.184Z,8.90
2018-03-28T08:59:54.906Z,8.90
2018-03-28T09:02:21.058Z,8.90
2018-03-28T09:04:49.259Z,8.90
2018-03-28T09:07:15.590Z,9.00
2018-03-28T09:26:25.721Z,9.00
2018-03-28T09:28:53.415Z,9.00
2018-03-28T09:45:28.355Z,9.20
2018-03-28T09:47:56.165Z,9.10
2018-03-28T09:50:23.048Z,9.10
2018-03-28T09:52:49.861Z,9.10
2018-03-28T09:55:16.065Z,9.10
2018-03-28T09:57:42.232Z,9.10
2018-03-28T10:00:08.937Z,9.10
2018-03-28T10:02:41.608Z,9.10
2018-03-28T10:05:11.480Z,9.10
2018-03-28T10:07:37.566Z,9.20
2018-03-28T10:10:05.158Z,9.20
2018-03-28T10:12:32.626Z,9.20
2018-03-28T10:14:59.326Z,9.20
2018-03-28T10:17:25.476Z,9.20
2018-03-28T10:19:52.908Z,9.20
2018-03-28T10:22:19.034Z,9.20
2018-03-28T10:24:46.129Z,9.20
2018-03-28T10:27:12.618Z,9.20
2018-03-28T10:29:38.740Z,9.30
2018-03-28T10:32:04.970Z,9.40
2018-03-28T10:34:31.127Z,9.30
2018-03-28T10:36:57.819Z,9.40
2018-03-28T10:39:24.030Z,9.40
2018-03-28T10:41:50.137Z,9.40
2018-03-28T10:44:16.263Z,9.40
2018-03-28T10:46:42.343Z,9.50
2018-03-28T10:49:08.881Z,9.50
2018-03-28T10:51:35.136Z,9.50
2018-03-28T10:54:01.315Z,9.50
2018-03-28T10:56:28.484Z,9.50
2018-03-28T10:58:54.709Z,9.50
2018-03-28T11:01:20.826Z,9.60
2018-03-28T11:03:47.182Z,9.70
2018-03-28T11:06:13.300Z,9.70
2018-03-28T11:08:40.473Z,9.70
2018-03-28T11:11:06.779Z,9.90
2018-03-28T11:13:34.691Z,10.00
2018-03-28T11:16:00.828Z,10.10
2018-03-28T11:18:27.680Z,10.00
2018-03-28T11:20:54.700Z,10.00
2018-03-28T11:23:20.783Z,9.80
2018-03-28T11:25:47.761Z,9.80
2018-03-28T11:28:15.138Z,9.80
2018-03-28T11:30:41.299Z,9.80
2018-03-28T11:33:08.485Z,9.80
2018-03-28T11:35:34.741Z,9.70
2018-03-28T11:38:01.647Z,9.70
2018-03-28T11:40:28.362Z,9.70
2018-03-28T11:42:57.104Z,9.70
2018-03-28T11:45:23.123Z,9.70
2018-03-28T11:47:49.335Z,9.80
2018-03-28T11:50:15.667Z,9.90
2018-03-28T11:52:41.784Z,9.90
2018-03-28T11:55:07.942Z,9.90
2018-03-28T11:57:34.277Z,9.80
2018-03-28T12:00:00.411Z,9.80
2018-03-28T12:02:26.988Z,9.90
2018-03-28T12:04:53.423Z,9.90
2018-03-28T12:07:20.300Z,10.00
2018-03-28T12:09:48.374Z,10.10
2018-03-28T12:12:14.645Z,10.10
2018-03-28T12:14:40.922Z,10.20
2018-03-28T12:17:09.605Z,10.30
2018-03-28T12:19:37.236Z,10.30
2018-03-28T12:22:04.585Z,10.40
2018-03-28T12:24:30.862Z,10.40
2018-03-28T12:26:57.200Z,10.50
2018-03-28T12:29:24.456Z,10.60
2018-03-28T12:31:50.947Z,10.70
2018-03-28T12:34:18.237Z,10.80
2018-03-28T12:36:44.576Z,10.80
2018-03-28T12:39:10.795Z,10.80
2018-03-28T12:41:37.616Z,10.90
2018-03-28T12:44:03.984Z,11.10
2018-03-28T12:46:30.144Z,11.30
2018-03-28T12:48:56.805Z,11.30
2018-03-28T12:51:22.949Z,11.20
2018-03-28T12:53:49.940Z,11.10
2018-03-28T12:56:17.055Z,11.00
2018-03-28T12:58:43.653Z,11.00
2018-03-28T13:01:10.239Z,11.00
2018-03-28T13:03:36.313Z,11.00
2018-03-28T13:06:04.193Z,11.00
2018-03-28T13:08:32.704Z,11.10
2018-03-28T13:10:58.855Z,11.10
2018-03-28T13:13:25.068Z,11.20
2018-03-28T13:15:51.969Z,11.20
2018-03-28T13:18:18.144Z,11.20
2018-03-28T13:20:44.399Z,11.20
2018-03-28T13:23:10.940Z,11.10
2018-03-28T13:25:38.379Z,11.10
2018-03-28T13:28:06.082Z,11.10
2018-03-28T13:30:32.410Z,11.10
2018-03-28T13:32:58.600Z,11.00
2018-03-28T13:35:25.094Z,11.00
2018-03-28T13:37:51.369Z,10.90
2018-03-28T13:40:18.832Z,10.80
2018-03-28T13:42:46.697Z,10.90
2018-03-28T13:45:12.832Z,10.90
2018-03-28T13:47:39.973Z,10.90
2018-03-28T13:50:08.092Z,10.80
2018-03-28T13:52:35.323Z,10.80
2018-03-28T13:55:02.841Z,10.70
2018-03-28T13:57:29.038Z,10.60
2018-03-28T13:59:56.872Z,10.60
2018-03-28T14:02:23.058Z,10.60
2018-03-28T14:04:49.374Z,10.60
2018-03-28T14:07:17.029Z,10.50
2018-03-28T14:09:45.205Z,10.50
2018-03-28T14:12:11.596Z,10.40
2018-03-28T14:14:38.095Z,10.40
2018-03-28T14:17:06.148Z,10.40
2018-03-28T14:19:33.880Z,10.40
2018-03-28T14:22:00.119Z,10.40
2018-03-28T14:24:26.228Z,10.30
2018-03-28T14:43:36.240Z,10.00
2018-03-28T14:46:04.248Z,10.00
2018-03-28T14:48:31.269Z,10.00
2018-03-28T14:50:58.452Z,10.00
2018-03-28T14:53:25.414Z,10.00
2018-03-28T14:55:51.723Z,10.00
2018-03-28T14:58:17.957Z,10.10
2018-03-28T15:00:46.040Z,10.20
2018-03-28T15:03:13.698Z,10.10
2018-03-28T15:05:39.922Z,10.10
2018-03-28T15:08:06.252Z,10.10
2018-03-28T15:10:32.907Z,10.10
2018-03-28T15:12:59.126Z,10.00
2018-03-28T15:15:25.730Z,10.00
2018-03-28T15:17:52.036Z,10.00
2018-03-28T15:20:18.229Z,10.00
2018-03-28T15:22:44.343Z,9.90
2018-03-28T15:25:11.160Z,10.00
2018-03-28T15:27:38.072Z,9.90
2018-03-28T15:30:07.006Z,9.90
2018-03-28T15:32:47.067Z,9.90
2018-03-28T15:35:13.121Z,9.90
2018-03-28T15:37:39.248Z,9.90
2018-03-28T15:40:06.271Z,9.80
2018-03-28T15:42:33.970Z,9.80
2018-03-28T15:45:00.535Z,9.80
2018-03-28T15:47:26.735Z,9.70
2018-03-28T15:49:52.875Z,9.80
2018-03-28T15:52:19.093Z,9.70
2018-03-28T15:54:46.805Z,9.70
2018-03-28T15:57:13.655Z,9.70
2018-03-28T15:59:39.841Z,9.70
2018-03-28T16:02:06.890Z,9.70
2018-03-28T16:04:33.616Z,9.70
2018-03-28T16:07:00.386Z,9.80
2018-03-28T16:09:27.042Z,9.80
2018-03-28T16:11:53.632Z,9.80
2018-03-28T16:14:21.537Z,9.70
2018-03-28T16:16:48.035Z,9.60
2018-03-28T16:19:14.482Z,9.60
2018-03-28T16:21:43.479Z,9.70
2018-03-28T16:24:10.679Z,9.70
2018-03-28T16:26:37.406Z,9.70
2018-03-28T16:32:27.175Z,9.70
2018-03-28T16:34:54.843Z,9.70
2018-03-28T16:54:03.758Z,9.70
2018-03-28T16:56:30.731Z,9.60
2018-03-28T16:58:56.932Z,9.60
2018-03-28T17:01:23.447Z,9.70
2018-03-28T17:03:50.322Z,9.70
2018-03-28T17:06:17.685Z,9.70
2018-03-28T17:08:43.738Z,9.70
2018-03-28T17:11:10.639Z,9.70
2018-03-28T17:13:36.838Z,9.80
2018-03-28T17:16:04.301Z,9.80
2018-03-28T17:18:30.325Z,9.90
2018-03-28T17:20:57.154Z,9.80
2018-03-28T17:23:23.332Z,9.80
2018-03-28T17:25:52.723Z,9.90
2018-03-28T17:28:18.944Z,9.90
2018-03-28T17:30:45.710Z,9.80
2018-03-28T17:33:11.917Z,9.80
2018-03-28T17:35:38.126Z,9.80
2018-03-28T17:38:04.403Z,9.80
2018-03-28T17:40:30.890Z,9.80
2018-03-28T17:42:58.268Z,9.80
2018-03-28T17:45:29.350Z,9.80
2018-03-28T17:47:55.983Z,9.80
2018-03-28T17:50:22.578Z,9.80
2018-03-28T17:52:48.696Z,9.80
2018-03-28T17:55:15.729Z,9.80
2018-03-28T17:57:42.846Z,9.80
2018-03-28T18:00:09.011Z,9.80
2018-03-28T18:02:36.305Z,9.80
2018-03-28T18:05:03.242Z,9.80
2018-03-28T18:24:12.770Z,9.80
2018-03-28T18:26:40.088Z,9.90
2018-03-28T18:32:41.310Z,9.90
2018-03-28T18:35:07.823Z,9.90
2018-03-28T18:40:05.406Z,9.90
2018-03-28T18:56:37.069Z,10.00
2018-03-28T18:59:03.197Z,10.00
2018-03-28T19:01:32.573Z,10.00
2018-03-28T19:03:59.219Z,10.00
2018-03-28T19:06:26.823Z,10.00
2018-03-28T19:08:57.206Z,9.90
2018-03-28T19:11:27.610Z,10.00
2018-03-28T19:13:54.181Z,10.00
2018-03-28T19:16:21.891Z,10.00
2018-03-28T19:18:51.156Z,10.00
2018-03-28T19:21:17.935Z,10.10
2018-03-28T19:23:44.701Z,10.20
2018-03-28T19:26:11.186Z,10.20
2018-03-28T19:28:37.513Z,10.20
2018-03-28T19:31:04.090Z,10.20
2018-03-28T19:33:30.269Z,10.20
2018-03-28T19:35:56.576Z,10.30
2018-03-28T19:38:23.292Z,10.40
2018-03-28T19:40:50.505Z,10.30
2018-03-28T19:43:16.563Z,10.30
2018-03-28T19:45:42.602Z,10.20
2018-03-28T19:48:08.702Z,10.20
2018-03-28T19:50:34.814Z,10.10
2018-03-28T19:53:00.938Z,10.10
2018-03-28T19:55:27.045Z,10.10
2018-03-28T19:57:54.327Z,10.10
2018-03-28T20:00:20.428Z,10.30
2018-03-28T20:02:46.476Z,10.40
2018-03-28T20:05:13.085Z,10.30
2018-03-28T20:07:39.094Z,10.30
2018-03-28T20:10:05.229Z,10.20
2018-03-28T20:12:31.540Z,10.20
2018-03-28T20:14:57.700Z,10.30
2018-03-28T20:17:24.393Z,10.20
2018-03-28T20:19:50.386Z,10.10
2018-03-28T20:22:16.502Z,10.00
2018-03-28T20:24:42.519Z,10.00
2018-03-28T20:27:08.589Z,10.00
2018-03-28T20:29:34.957Z,10.00
2018-03-28T20:32:00.999Z,10.00
2018-03-28T20:34:27.418Z,10.10
2018-03-28T20:36:53.624Z,10.10
2018-03-28T20:39:19.784Z,10.00
2018-03-28T20:41:46.040Z,10.00
2018-03-28T20:44:12.296Z,10.00
2018-03-28T20:46:38.508Z,10.00
2018-03-28T20:49:04.820Z,10.00
2018-03-28T20:51:31.229Z,10.00
2018-03-28T20:53:57.272Z,9.90
2018-03-28T20:56:23.458Z,9.90
2018-03-28T20:58:49.708Z,10.00
2018-03-28T21:01:16.042Z,9.90
2018-03-28T21:03:42.181Z,9.90
2018-03-28T21:06:08.558Z,9.80
2018-03-28T21:08:34.851Z,9.80
2018-03-28T21:11:02.295Z,9.70
2018-03-28T21:13:28.624Z,9.70
2018-03-28T21:15:54.684Z,9.60
2018-03-28T21:18:21.071Z,9.60
2018-03-28T21:20:47.203Z,9.60
2018-03-28T21:23:13.637Z,9.50
2018-03-28T21:25:40.020Z,9.50
2018-03-28T21:28:06.077Z,9.50
2018-03-28T21:30:32.087Z,9.50
2018-03-28T21:32:58.673Z,9.50
2018-03-28T21:35:24.838Z,9.40
2018-03-28T21:37:52.425Z,9.40
2018-03-28T21:40:18.505Z,9.30
2018-03-28T21:42:45.181Z,9.30
2018-03-28T21:45:11.399Z,9.20
2018-03-28T21:47:37.468Z,9.10
2018-03-28T21:50:03.892Z,9.10
2018-03-28T21:52:30.032Z,8.90
2018-03-28T21:54:56.383Z,8.80
2018-03-28T21:57:22.472Z,8.80
2018-03-28T21:59:48.631Z,8.80
2018-03-28T22:02:15.017Z,8.70
2018-03-28T22:04:41.124Z,8.70
2018-03-28T22:07:08.517Z,8.70
2018-03-28T22:09:34.907Z,8.60
2018-03-28T22:12:00.918Z,8.60
2018-03-28T22:14:27.031Z,8.50
2018-03-28T22:16:53.090Z,8.40
2018-03-28T22:19:19.208Z,8.30
2018-03-28T22:21:45.583Z,8.30
2018-03-28T22:24:11.621Z,8.20
2018-03-28T22:26:38.201Z,8.10
2018-03-28T22:29:04.575Z,8.00
2018-03-28T22:31:30.659Z,7.90
2018-03-28T22:33:56.684Z,7.90
2018-03-28T22:36:22.754Z,7.90
2018-03-28T22:38:49.646Z,7.70
2018-03-28T22:41:15.737Z,7.70
2018-03-28T22:43:41.801Z,7.60
2018-03-28T22:46:07.906Z,7.60
2018-03-28T22:48:34.024Z,7.60
2018-03-28T22:51:07.589Z,7.50
2018-03-28T22:53:35.151Z,7.50
2018-03-28T22:56:01.309Z,7.30
2018-03-28T22:58:27.778Z,7.30
2018-03-28T23:00:53.807Z,7.30
2018-03-28T23:03:19.907Z,7.20
2018-03-28T23:05:45.962Z,7.20
2018-03-28T23:08:14.445Z,7.20
2018-03-28T23:10:40.913Z,7.10
2018-03-28T23:13:08.123Z,7.10
2018-03-28T23:15:34.452Z,7.00
2018-03-28T23:18:02.270Z,6.90
2018-03-28T23:20:37.459Z,6.90
2018-03-28T23:23:04.221Z,6.80
2018-03-28T23:25:30.320Z,6.80
2018-03-28T23:27:56.907Z,6.80
2018-03-28T23:30:23.210Z,6.80
2018-03-28T23:32:49.728Z,6.70
2018-03-28T23:35:16.361Z,6.70
2018-03-28T23:37:43.153Z,6.70
2018-03-28T23:40:09.285Z,6.60
2018-03-28T23:42:35.763Z,6.70
2018-03-28T23:45:01.885Z,6.60
2018-03-28T23:47:28.056Z,6.60
2018-03-28T23:49:54.891Z,6.60
2018-03-28T23:52:28.681Z,6.60
2018-03-28T23:54:57.431Z,6.60
2018-03-28T23:57:23.578Z,6.60
2018-03-28T23:59:49.767Z,6.50
